Iwakuni Marine Corps Air Station
RJOI : now visible

Airfield :











YOU CAN JOIN US ON...

 
LOGIN :

Register | Disclaimer

   EN    FR    IT 

 









Legend :    VFR   Marginal VFR   IFR   Intensive IFR   Very Intensive IFR
Visi :
Ceiling :
>= 8 km
>= 3000ft
5 to 8 km
1000 to 3000 ft
1500m to 5 km
500 to 1000 ft
800 to 1500m
200 to 500 ft
< 800m
< 200 ft
Symbols :   Thunderstorms  Fog  Heavy snow  Heavy precipitations  Wind > 20 kt






- Airport Elevation : 7 ft


RJOI - Iwakuni Marine Corps Air Station

CURRENT METAR :
  • 162355Z 30004KT 9999 FEW030 BKN230 13/09 A3023 RMK SLP237 T01330089 10139 20100 51010

EXPIRED METARs :
  • 162255Z 34006KT 9999 FEW030 BKN220 13/09 A3023 RMK SLP235 T01280089
  • 162155Z 30005KT 9999 FEW008 FEW025 BKN200 10/08 A3021 RMK SLP230 T01000078

TAF TAF RJOI
Valid from the 16 at 21:00 until the 17 at 21:00 UTC


1621/1721 31006KT 9999 FEW030 FEW100 SCT200 620903 QNH3014INS
BECMG 1701/1703 05007KT 9999 SCT030 BKN100 BKN190 621003 QNH3014INS
FM170500 15008KT 9999 SCT030 BKN100 BKN180 621003 QNH3013INS
TEMPO 1708/1710 VRB06KT
FM171000 31006KT 9999 FEW030 BKN050 BKN140 621402 QNH3010INS T19/1705Z T07/1721Z



MET'MAP, your aeronautical weather chart ! - Copyright ORBIFLY December 2007 - Disclaimer

ORBIFLY MET'MAP TEAM :

Programming & Development : Alexandra Zaïnal
Concept & Development : Baudouin d'Aumeries
Co-Development & Prog : Marc-Olivier Méhu
Technical & hardware support : Manuel Goepfert

Contact : metmap@orbifly.com




SOURCES & CREDITS :

   NOAA       Earth
Advisory